sensor_id;sensor_type;location;lat;lon;timestamp;P1;durP1;ratioP1;P2;durP2;ratioP2
38023;SDS011;23834;48.080;11.682;2024-03-23T00:54:53;1.60;;;1.50;;
38023;SDS011;23834;48.080;11.682;2024-03-23T00:57:18;1.70;;;1.60;;
38023;SDS011;23834;48.080;11.682;2024-03-23T00:59:44;1.53;;;1.43;;
38023;SDS011;23834;48.080;11.682;2024-03-23T01:02:09;1.60;;;1.50;;
38023;SDS011;23834;48.080;11.682;2024-03-23T01:04:34;1.67;;;1.57;;
38023;SDS011;23834;48.080;11.682;2024-03-23T01:06:59;1.57;;;1.47;;
38023;SDS011;23834;48.080;11.682;2024-03-23T01:09:24;1.60;;;1.50;;
38023;SDS011;23834;48.080;11.682;2024-03-23T01:11:49;1.67;;;1.57;;
38023;SDS011;23834;48.080;11.682;2024-03-23T01:14:14;1.40;;;1.30;;
38023;SDS011;23834;48.080;11.682;2024-03-23T01:16:40;1.30;;;1.20;;
38023;SDS011;23834;48.080;11.682;2024-03-23T01:19:05;1.20;;;1.20;;
38023;SDS011;23834;48.080;11.682;2024-03-23T01:21:31;1.40;;;1.40;;
38023;SDS011;23834;48.080;11.682;2024-03-23T01:23:56;1.50;;;1.40;;
38023;SDS011;23834;48.080;11.682;2024-03-23T01:26:21;1.40;;;1.30;;
38023;SDS011;23834;48.080;11.682;2024-03-23T01:28:47;1.30;;;1.30;;
38023;SDS011;23834;48.080;11.682;2024-03-23T01:31:12;1.70;;;1.60;;
38023;SDS011;23834;48.080;11.682;2024-03-23T01:33:37;1.60;;;1.50;;
38023;SDS011;23834;48.080;11.682;2024-03-23T01:36:03;1.50;;;1.40;;
38023;SDS011;23834;48.080;11.682;2024-03-23T01:38:28;1.50;;;1.40;;
38023;SDS011;23834;48.080;11.682;2024-03-23T01:40:56;1.23;;;1.20;;
38023;SDS011;23834;48.080;11.682;2024-03-23T01:43:22;1.50;;;1.40;;
38023;SDS011;23834;48.080;11.682;2024-03-23T01:45:47;1.80;;;1.30;;
38023;SDS011;23834;48.080;11.682;2024-03-23T01:48:12;1.40;;;1.30;;
38023;SDS011;23834;48.080;11.682;2024-03-23T01:50:38;1.53;;;1.43;;
38023;SDS011;23834;48.080;11.682;2024-03-23T01:53:03;1.53;;;1.43;;
38023;SDS011;23834;48.080;11.682;2024-03-23T01:55:30;1.30;;;1.20;;
38023;SDS011;23834;48.080;11.682;2024-03-23T01:57:56;1.60;;;1.50;;
38023;SDS011;23834;48.080;11.682;2024-03-23T02:00:21;2.90;;;1.50;;
38023;SDS011;23834;48.080;11.682;2024-03-23T02:02:48;1.47;;;1.37;;
38023;SDS011;23834;48.080;11.682;2024-03-23T02:05:13;1.47;;;1.20;;
38023;SDS011;23834;48.080;11.682;2024-03-23T02:07:38;1.00;;;1.00;;
38023;SDS011;23834;48.080;11.682;2024-03-23T02:10:05;1.40;;;1.30;;
38023;SDS011;23834;48.080;11.682;2024-03-23T02:12:30;1.27;;;1.23;;
38023;SDS011;23834;48.080;11.682;2024-03-23T02:14:56;1.13;;;1.10;;
38023;SDS011;23834;48.080;11.682;2024-03-23T02:17:21;1.83;;;1.40;;
38023;SDS011;23834;48.080;11.682;2024-03-23T02:19:46;1.13;;;1.03;;
38023;SDS011;23834;48.080;11.682;2024-03-23T02:22:11;1.20;;;1.10;;
38023;SDS011;23834;48.080;11.682;2024-03-23T02:24:37;1.27;;;1.17;;
38023;SDS011;23834;48.080;11.682;2024-03-23T02:27:02;1.40;;;1.30;;
38023;SDS011;23834;48.080;11.682;2024-03-23T02:29:28;1.30;;;1.20;;
38023;SDS011;23834;48.080;11.682;2024-03-23T02:31:53;1.13;;;1.10;;
38023;SDS011;23834;48.080;11.682;2024-03-23T02:34:18;1.20;;;1.20;;
38023;SDS011;23834;48.080;11.682;2024-03-23T02:36:43;1.13;;;1.10;;
38023;SDS011;23834;48.080;11.682;2024-03-23T02:39:08;1.30;;;1.20;;
38023;SDS011;23834;48.080;11.682;2024-03-23T02:41:34;1.60;;;1.50;;
38023;SDS011;23834;48.080;11.682;2024-03-23T02:43:59;1.27;;;1.17;;
38023;SDS011;23834;48.080;11.682;2024-03-23T02:46:24;1.00;;;1.00;;
38023;SDS011;23834;48.080;11.682;2024-03-23T02:48:49;1.20;;;1.13;;
38023;SDS011;23834;48.080;11.682;2024-03-23T02:51:14;1.23;;;1.20;;
38023;SDS011;23834;48.080;11.682;2024-03-23T02:53:39;1.10;;;1.03;;
38023;SDS011;23834;48.080;11.682;2024-03-23T02:56:05;1.37;;;1.27;;
38023;SDS011;23834;48.080;11.682;2024-03-23T02:58:30;1.30;;;1.20;;
38023;SDS011;23834;48.080;11.682;2024-03-23T03:00:55;1.20;;;1.10;;
38023;SDS011;23834;48.080;11.682;2024-03-23T03:03:20;0.90;;;0.90;;
38023;SDS011;23834;48.080;11.682;2024-03-23T03:05:46;1.13;;;1.03;;
38023;SDS011;23834;48.080;11.682;2024-03-23T03:08:11;0.93;;;0.93;;
38023;SDS011;23834;48.080;11.682;2024-03-23T03:10:36;0.97;;;0.97;;
38023;SDS011;23834;48.080;11.682;2024-03-23T03:13:01;1.00;;;1.00;;
38023;SDS011;23834;48.080;11.682;2024-03-23T03:15:27;0.97;;;0.97;;
38023;SDS011;23834;48.080;11.682;2024-03-23T03:17:52;1.10;;;1.00;;
38023;SDS011;23834;48.080;11.682;2024-03-23T03:20:17;0.90;;;0.90;;
38023;SDS011;23834;48.080;11.682;2024-03-23T03:22:43;0.90;;;0.90;;
38023;SDS011;23834;48.080;11.682;2024-03-23T03:25:08;0.90;;;0.90;;
38023;SDS011;23834;48.080;11.682;2024-03-23T03:27:33;1.03;;;1.03;;
38023;SDS011;23834;48.080;11.682;2024-03-23T03:29:59;0.90;;;0.90;;
38023;SDS011;23834;48.080;11.682;2024-03-23T03:32:26;1.03;;;1.00;;
38023;SDS011;23834;48.080;11.682;2024-03-23T03:34:52;1.07;;;1.07;;
38023;SDS011;23834;48.080;11.682;2024-03-23T03:37:17;0.90;;;0.90;;
38023;SDS011;23834;48.080;11.682;2024-03-23T03:39:42;0.80;;;0.80;;
38023;SDS011;23834;48.080;11.682;2024-03-23T03:42:07;1.00;;;1.00;;
38023;SDS011;23834;48.080;11.682;2024-03-23T03:44:32;0.80;;;0.80;;
38023;SDS011;23834;48.080;11.682;2024-03-23T03:46:58;0.87;;;0.87;;
38023;SDS011;23834;48.080;11.682;2024-03-23T03:49:23;1.03;;;1.03;;
38023;SDS011;23834;48.080;11.682;2024-03-23T03:51:48;0.80;;;0.80;;
38023;SDS011;23834;48.080;11.682;2024-03-23T03:54:13;1.10;;;1.00;;
38023;SDS011;23834;48.080;11.682;2024-03-23T03:56:38;1.00;;;0.90;;
38023;SDS011;23834;48.080;11.682;2024-03-23T03:59:03;1.00;;;1.00;;
38023;SDS011;23834;48.080;11.682;2024-03-23T04:01:29;0.90;;;0.90;;
38023;SDS011;23834;48.080;11.682;2024-03-23T04:03:55;1.30;;;1.13;;
38023;SDS011;23834;48.080;11.682;2024-03-23T04:06:20;0.97;;;0.97;;
38023;SDS011;23834;48.080;11.682;2024-03-23T04:08:45;1.20;;;1.10;;
38023;SDS011;23834;48.080;11.682;2024-03-23T04:11:10;1.30;;;1.20;;
38023;SDS011;23834;48.080;11.682;2024-03-23T04:13:35;0.97;;;0.97;;
38023;SDS011;23834;48.080;11.682;2024-03-23T04:16:01;1.20;;;1.10;;
38023;SDS011;23834;48.080;11.682;2024-03-23T04:18:26;1.13;;;1.13;;
38023;SDS011;23834;48.080;11.682;2024-03-23T04:20:51;1.10;;;1.00;;
38023;SDS011;23834;48.080;11.682;2024-03-23T04:23:17;1.00;;;1.00;;
38023;SDS011;23834;48.080;11.682;2024-03-23T04:25:42;0.90;;;0.90;;
38023;SDS011;23834;48.080;11.682;2024-03-23T04:28:07;0.90;;;0.90;;
38023;SDS011;23834;48.080;11.682;2024-03-23T04:30:32;1.23;;;1.13;;
38023;SDS011;23834;48.080;11.682;2024-03-23T04:32:57;0.80;;;0.80;;
38023;SDS011;23834;48.080;11.682;2024-03-23T04:35:23;1.10;;;1.10;;
38023;SDS011;23834;48.080;11.682;2024-03-23T04:37:50;0.90;;;0.90;;
38023;SDS011;23834;48.080;11.682;2024-03-23T04:40:17;0.97;;;0.97;;
38023;SDS011;23834;48.080;11.682;2024-03-23T04:42:42;1.10;;;1.00;;
38023;SDS011;23834;48.080;11.682;2024-03-23T04:45:07;1.10;;;1.10;;
38023;SDS011;23834;48.080;11.682;2024-03-23T04:47:33;1.10;;;1.00;;
38023;SDS011;23834;48.080;11.682;2024-03-23T04:50:00;0.93;;;0.83;;
38023;SDS011;23834;48.080;11.682;2024-03-23T04:52:26;0.87;;;0.87;;
38023;SDS011;23834;48.080;11.682;2024-03-23T04:54:51;0.93;;;0.93;;
38023;SDS011;23834;48.080;11.682;2024-03-23T04:57:17;0.70;;;0.70;;
38023;SDS011;23834;48.080;11.682;2024-03-23T04:59:42;0.93;;;0.93;;
38023;SDS011;23834;48.080;11.682;2024-03-23T05:02:07;0.80;;;0.80;;
38023;SDS011;23834;48.080;11.682;2024-03-23T05:04:32;1.00;;;0.87;;
38023;SDS011;23834;48.080;11.682;2024-03-23T05:06:58;1.20;;;1.10;;
38023;SDS011;23834;48.080;11.682;2024-03-23T05:09:23;1.40;;;1.10;;
38023;SDS011;23834;48.080;11.682;2024-03-23T05:11:48;0.87;;;0.87;;
38023;SDS011;23834;48.080;11.682;2024-03-23T05:14:13;0.90;;;0.90;;
38023;SDS011;23834;48.080;11.682;2024-03-23T05:16:38;1.00;;;1.00;;
38023;SDS011;23834;48.080;11.682;2024-03-23T05:19:04;0.93;;;0.93;;
38023;SDS011;23834;48.080;11.682;2024-03-23T05:21:29;0.90;;;0.90;;
38023;SDS011;23834;48.080;11.682;2024-03-23T05:23:54;1.10;;;1.00;;
38023;SDS011;23834;48.080;11.682;2024-03-23T05:26:21;0.87;;;0.87;;
38023;SDS011;23834;48.080;11.682;2024-03-23T05:28:46;1.00;;;0.90;;
38023;SDS011;23834;48.080;11.682;2024-03-23T05:31:11;0.80;;;0.80;;
38023;SDS011;23834;48.080;11.682;2024-03-23T05:33:37;1.00;;;0.93;;
38023;SDS011;23834;48.080;11.682;2024-03-23T05:36:05;0.93;;;0.90;;
38023;SDS011;23834;48.080;11.682;2024-03-23T05:38:30;0.77;;;0.77;;
38023;SDS011;23834;48.080;11.682;2024-03-23T05:43:21;1.00;;;0.90;;
38023;SDS011;23834;48.080;11.682;2024-03-23T05:45:46;0.70;;;0.70;;
38023;SDS011;23834;48.080;11.682;2024-03-23T05:48:17;0.87;;;0.87;;
38023;SDS011;23834;48.080;11.682;2024-03-23T05:50:42;0.77;;;0.70;;
38023;SDS011;23834;48.080;11.682;2024-03-23T05:53:08;0.93;;;0.93;;
38023;SDS011;23834;48.080;11.682;2024-03-23T05:55:33;0.83;;;0.83;;
38023;SDS011;23834;48.080;11.682;2024-03-23T05:57:58;0.93;;;0.90;;
38023;SDS011;23834;48.080;11.682;2024-03-23T06:00:25;0.70;;;0.70;;
38023;SDS011;23834;48.080;11.682;2024-03-23T06:02:51;0.80;;;0.80;;
38023;SDS011;23834;48.080;11.682;2024-03-23T06:05:16;0.93;;;0.93;;
38023;SDS011;23834;48.080;11.682;2024-03-23T06:07:41;0.90;;;0.90;;
38023;SDS011;23834;48.080;11.682;2024-03-23T06:10:07;0.70;;;0.70;;
38023;SDS011;23834;48.080;11.682;2024-03-23T06:12:32;1.00;;;0.80;;
38023;SDS011;23834;48.080;11.682;2024-03-23T06:14:57;0.83;;;0.60;;
38023;SDS011;23834;48.080;11.682;2024-03-23T06:17:22;0.80;;;0.80;;
38023;SDS011;23834;48.080;11.682;2024-03-23T06:19:47;0.67;;;0.67;;
38023;SDS011;23834;48.080;11.682;2024-03-23T06:22:14;0.60;;;0.60;;
38023;SDS011;23834;48.080;11.682;2024-03-23T06:24:39;0.90;;;0.70;;
38023;SDS011;23834;48.080;11.682;2024-03-23T06:27:04;0.50;;;0.50;;
38023;SDS011;23834;48.080;11.682;2024-03-23T06:29:29;1.20;;;0.77;;
38023;SDS011;23834;48.080;11.682;2024-03-23T06:31:54;0.83;;;0.80;;
38023;SDS011;23834;48.080;11.682;2024-03-23T06:34:20;0.60;;;0.60;;
38023;SDS011;23834;48.080;11.682;2024-03-23T06:36:46;0.70;;;0.70;;
38023;SDS011;23834;48.080;11.682;2024-03-23T06:39:12;0.83;;;0.70;;
38023;SDS011;23834;48.080;11.682;2024-03-23T06:41:40;0.50;;;0.50;;
38023;SDS011;23834;48.080;11.682;2024-03-23T06:44:05;0.87;;;0.53;;
38023;SDS011;23834;48.080;11.682;2024-03-23T06:46:30;0.60;;;0.60;;
38023;SDS011;23834;48.080;11.682;2024-03-23T06:48:56;0.80;;;0.80;;
38023;SDS011;23834;48.080;11.682;2024-03-23T06:51:21;0.70;;;0.70;;
38023;SDS011;23834;48.080;11.682;2024-03-23T06:53:46;0.63;;;0.63;;
38023;SDS011;23834;48.080;11.682;2024-03-23T06:56:11;0.70;;;0.70;;
38023;SDS011;23834;48.080;11.682;2024-03-23T06:58:37;0.63;;;0.63;;
38023;SDS011;23834;48.080;11.682;2024-03-23T07:01:02;0.70;;;0.70;;
38023;SDS011;23834;48.080;11.682;2024-03-23T07:03:27;0.60;;;0.60;;
38023;SDS011;23834;48.080;11.682;2024-03-23T07:05:52;0.70;;;0.70;;
38023;SDS011;23834;48.080;11.682;2024-03-23T07:08:17;0.73;;;0.70;;
38023;SDS011;23834;48.080;11.682;2024-03-23T07:10:46;0.60;;;0.60;;
38023;SDS011;23834;48.080;11.682;2024-03-23T07:13:12;0.50;;;0.50;;
38023;SDS011;23834;48.080;11.682;2024-03-23T07:15:37;0.60;;;0.60;;
38023;SDS011;23834;48.080;11.682;2024-03-23T07:18:02;0.70;;;0.70;;
38023;SDS011;23834;48.080;11.682;2024-03-23T07:20:27;0.90;;;0.80;;
38023;SDS011;23834;48.080;11.682;2024-03-23T07:22:55;0.60;;;0.50;;
38023;SDS011;23834;48.080;11.682;2024-03-23T07:25:20;0.63;;;0.63;;
38023;SDS011;23834;48.080;11.682;2024-03-23T07:27:47;0.70;;;0.70;;
38023;SDS011;23834;48.080;11.682;2024-03-23T07:30:12;0.80;;;0.70;;
38023;SDS011;23834;48.080;11.682;2024-03-23T07:32:38;0.60;;;0.60;;
38023;SDS011;23834;48.080;11.682;2024-03-23T07:35:03;0.60;;;0.60;;
38023;SDS011;23834;48.080;11.682;2024-03-23T07:37:29;0.70;;;0.70;;
38023;SDS011;23834;48.080;11.682;2024-03-23T07:39:54;0.70;;;0.70;;
38023;SDS011;23834;48.080;11.682;2024-03-23T07:42:19;0.77;;;0.73;;
38023;SDS011;23834;48.080;11.682;2024-03-23T07:44:44;0.80;;;0.80;;
38023;SDS011;23834;48.080;11.682;2024-03-23T07:47:11;0.77;;;0.77;;
38023;SDS011;23834;48.080;11.682;2024-03-23T07:49:37;0.60;;;0.50;;
38023;SDS011;23834;48.080;11.682;2024-03-23T07:52:02;1.07;;;0.60;;
38023;SDS011;23834;48.080;11.682;2024-03-23T07:54:27;0.67;;;0.67;;
38023;SDS011;23834;48.080;11.682;2024-03-23T07:56:53;0.67;;;0.67;;
38023;SDS011;23834;48.080;11.682;2024-03-23T07:59:19;0.70;;;0.70;;
38023;SDS011;23834;48.080;11.682;2024-03-23T08:01:44;0.83;;;0.83;;
38023;SDS011;23834;48.080;11.682;2024-03-23T08:04:09;0.70;;;0.70;;
38023;SDS011;23834;48.080;11.682;2024-03-23T08:06:34;0.73;;;0.73;;
38023;SDS011;23834;48.080;11.682;2024-03-23T08:09:00;0.90;;;0.90;;
38023;SDS011;23834;48.080;11.682;2024-03-23T08:11:27;0.87;;;0.87;;
38023;SDS011;23834;48.080;11.682;2024-03-23T08:13:53;1.83;;;0.63;;
38023;SDS011;23834;48.080;11.682;2024-03-23T08:16:18;0.60;;;0.60;;
38023;SDS011;23834;48.080;11.682;2024-03-23T08:18:44;0.80;;;0.80;;
38023;SDS011;23834;48.080;11.682;2024-03-23T08:21:09;0.80;;;0.80;;
38023;SDS011;23834;48.080;11.682;2024-03-23T08:23:35;1.00;;;0.93;;
38023;SDS011;23834;48.080;11.682;2024-03-23T08:26:11;1.40;;;1.10;;
38023;SDS011;23834;48.080;11.682;2024-03-23T08:28:37;1.00;;;1.00;;
38023;SDS011;23834;48.080;11.682;2024-03-23T08:31:10;1.23;;;1.13;;
38023;SDS011;23834;48.080;11.682;2024-03-23T08:33:36;1.17;;;1.00;;
38023;SDS011;23834;48.080;11.682;2024-03-23T08:36:02;0.80;;;0.80;;
38023;SDS011;23834;48.080;11.682;2024-03-23T08:38:27;1.00;;;1.00;;
38023;SDS011;23834;48.080;11.682;2024-03-23T08:40:59;1.33;;;0.90;;
38023;SDS011;23834;48.080;11.682;2024-03-23T08:43:25;1.30;;;1.20;;
38023;SDS011;23834;48.080;11.682;2024-03-23T08:45:50;1.10;;;1.00;;
38023;SDS011;23834;48.080;11.682;2024-03-23T08:48:15;1.10;;;1.00;;
38023;SDS011;23834;48.080;11.682;2024-03-23T08:50:41;0.80;;;0.80;;
38023;SDS011;23834;48.080;11.682;2024-03-23T08:53:06;0.87;;;0.87;;
38023;SDS011;23834;48.080;11.682;2024-03-23T08:55:31;0.70;;;0.70;;
38023;SDS011;23834;48.080;11.682;2024-03-23T08:57:56;1.17;;;1.07;;
38023;SDS011;23834;48.080;11.682;2024-03-23T09:00:21;0.60;;;0.60;;
38023;SDS011;23834;48.080;11.682;2024-03-23T09:02:47;0.90;;;0.80;;
38023;SDS011;23834;48.080;11.682;2024-03-23T09:05:12;0.73;;;0.73;;
38023;SDS011;23834;48.080;11.682;2024-03-23T09:07:38;2.70;;;0.90;;
38023;SDS011;23834;48.080;11.682;2024-03-23T09:10:03;1.20;;;1.10;;
38023;SDS011;23834;48.080;11.682;2024-03-23T09:12:28;1.50;;;0.90;;
38023;SDS011;23834;48.080;11.682;2024-03-23T09:14:53;1.00;;;0.87;;
38023;SDS011;23834;48.080;11.682;2024-03-23T09:17:18;0.80;;;0.80;;
38023;SDS011;23834;48.080;11.682;2024-03-23T09:19:44;0.97;;;0.90;;
38023;SDS011;23834;48.080;11.682;2024-03-23T09:22:09;0.90;;;0.80;;
38023;SDS011;23834;48.080;11.682;2024-03-23T09:24:34;0.90;;;0.80;;
38023;SDS011;23834;48.080;11.682;2024-03-23T09:26:59;0.60;;;0.60;;
38023;SDS011;23834;48.080;11.682;2024-03-23T09:29:24;1.10;;;1.00;;
38023;SDS011;23834;48.080;11.682;2024-03-23T09:31:50;0.73;;;0.73;;
38023;SDS011;23834;48.080;11.682;2024-03-23T09:34:15;0.70;;;0.70;;
38023;SDS011;23834;48.080;11.682;2024-03-23T09:36:40;0.60;;;0.60;;
38023;SDS011;23834;48.080;11.682;2024-03-23T09:39:06;0.80;;;0.67;;
38023;SDS011;23834;48.080;11.682;2024-03-23T09:41:31;0.80;;;0.80;;
38023;SDS011;23834;48.080;11.682;2024-03-23T09:43:56;1.17;;;0.80;;
38023;SDS011;23834;48.080;11.682;2024-03-23T09:46:22;1.07;;;0.90;;
38023;SDS011;23834;48.080;11.682;2024-03-23T09:48:48;0.77;;;0.77;;
38023;SDS011;23834;48.080;11.682;2024-03-23T09:51:13;1.20;;;0.67;;
38023;SDS011;23834;48.080;11.682;2024-03-23T09:53:38;1.03;;;0.70;;
38023;SDS011;23834;48.080;11.682;2024-03-23T09:56:04;0.70;;;0.70;;
38023;SDS011;23834;48.080;11.682;2024-03-23T09:58:29;0.70;;;0.70;;
38023;SDS011;23834;48.080;11.682;2024-03-23T10:00:54;0.60;;;0.60;;
38023;SDS011;23834;48.080;11.682;2024-03-23T10:03:19;0.57;;;0.53;;
38023;SDS011;23834;48.080;11.682;2024-03-23T10:05:45;1.20;;;0.67;;
38023;SDS011;23834;48.080;11.682;2024-03-23T10:08:19;0.70;;;0.63;;
38023;SDS011;23834;48.080;11.682;2024-03-23T10:10:45;1.23;;;0.70;;
38023;SDS011;23834;48.080;11.682;2024-03-23T10:13:10;0.60;;;0.50;;
38023;SDS011;23834;48.080;11.682;2024-03-23T10:15:37;0.50;;;0.50;;
38023;SDS011;23834;48.080;11.682;2024-03-23T10:20:40;0.60;;;0.60;;
38023;SDS011;23834;48.080;11.682;2024-03-23T10:23:05;0.50;;;0.50;;
38023;SDS011;23834;48.080;11.682;2024-03-23T10:25:40;0.60;;;0.57;;
38023;SDS011;23834;48.080;11.682;2024-03-23T10:28:05;0.60;;;0.50;;
38023;SDS011;23834;48.080;11.682;2024-03-23T10:30:31;1.53;;;0.50;;
38023;SDS011;23834;48.080;11.682;2024-03-23T10:35:33;0.50;;;0.50;;
38023;SDS011;23834;48.080;11.682;2024-03-23T10:37:59;0.57;;;0.57;;
38023;SDS011;23834;48.080;11.682;2024-03-23T10:40:24;0.50;;;0.50;;
38023;SDS011;23834;48.080;11.682;2024-03-23T10:42:49;0.60;;;0.60;;
38023;SDS011;23834;48.080;11.682;2024-03-23T10:45:16;0.60;;;0.60;;
38023;SDS011;23834;48.080;11.682;2024-03-23T10:47:41;0.60;;;0.53;;
38023;SDS011;23834;48.080;11.682;2024-03-23T10:50:07;0.50;;;0.50;;
38023;SDS011;23834;48.080;11.682;2024-03-23T10:52:33;0.50;;;0.50;;
38023;SDS011;23834;48.080;11.682;2024-03-23T10:54:58;0.50;;;0.50;;
38023;SDS011;23834;48.080;11.682;2024-03-23T10:57:27;0.50;;;0.50;;
38023;SDS011;23834;48.080;11.682;2024-03-23T10:59:54;0.80;;;0.50;;
38023;SDS011;23834;48.080;11.682;2024-03-23T11:02:20;0.70;;;0.50;;
38023;SDS011;23834;48.080;11.682;2024-03-23T11:04:45;0.47;;;0.43;;
38023;SDS011;23834;48.080;11.682;2024-03-23T11:07:31;0.60;;;0.50;;
38023;SDS011;23834;48.080;11.682;2024-03-23T11:09:57;0.43;;;0.43;;
38023;SDS011;23834;48.080;11.682;2024-03-23T11:14:51;0.45;;;0.40;;
38023;SDS011;23834;48.080;11.682;2024-03-23T11:17:23;0.47;;;0.40;;
38023;SDS011;23834;48.080;11.682;2024-03-23T11:19:58;0.50;;;0.50;;
38023;SDS011;23834;48.080;11.682;2024-03-23T11:22:40;0.80;;;0.70;;
38023;SDS011;23834;48.080;11.682;2024-03-23T11:25:17;0.43;;;0.43;;
38023;SDS011;23834;48.080;11.682;2024-03-23T11:27:44;0.50;;;0.50;;
38023;SDS011;23834;48.080;11.682;2024-03-23T11:32:42;0.63;;;0.60;;
38023;SDS011;23834;48.080;11.682;2024-03-23T11:35:07;0.60;;;0.50;;
38023;SDS011;23834;48.080;11.682;2024-03-23T11:37:34;0.60;;;0.50;;
38023;SDS011;23834;48.080;11.682;2024-03-23T11:40:00;0.50;;;0.50;;
38023;SDS011;23834;48.080;11.682;2024-03-23T11:42:26;0.50;;;0.40;;
38023;SDS011;23834;48.080;11.682;2024-03-23T11:44:51;0.50;;;0.40;;
38023;SDS011;23834;48.080;11.682;2024-03-23T11:47:17;0.50;;;0.50;;
38023;SDS011;23834;48.080;11.682;2024-03-23T11:49:42;0.77;;;0.50;;
38023;SDS011;23834;48.080;11.682;2024-03-23T11:52:07;0.50;;;0.50;;
38023;SDS011;23834;48.080;11.682;2024-03-23T11:54:32;0.50;;;0.50;;
38023;SDS011;23834;48.080;11.682;2024-03-23T11:57:01;0.50;;;0.50;;
38023;SDS011;23834;48.080;11.682;2024-03-23T11:59:41;0.80;;;0.50;;
38023;SDS011;23834;48.080;11.682;2024-03-23T12:02:07;0.50;;;0.50;;
38023;SDS011;23834;48.080;11.682;2024-03-23T12:04:32;0.50;;;0.47;;
38023;SDS011;23834;48.080;11.682;2024-03-23T12:09:38;0.77;;;0.40;;
38023;SDS011;23834;48.080;11.682;2024-03-23T12:12:16;1.37;;;0.50;;
38023;SDS011;23834;48.080;11.682;2024-03-23T12:14:45;0.50;;;0.50;;
38023;SDS011;23834;48.080;11.682;2024-03-23T12:17:14;0.50;;;0.50;;
38023;SDS011;23834;48.080;11.682;2024-03-23T12:19:39;0.63;;;0.50;;
38023;SDS011;23834;48.080;11.682;2024-03-23T12:22:06;0.57;;;0.53;;
38023;SDS011;23834;48.080;11.682;2024-03-23T12:24:32;0.50;;;0.40;;
38023;SDS011;23834;48.080;11.682;2024-03-23T12:26:59;0.50;;;0.40;;
38023;SDS011;23834;48.080;11.682;2024-03-23T12:29:26;1.00;;;0.53;;
38023;SDS011;23834;48.080;11.682;2024-03-23T12:31:51;0.40;;;0.40;;
38023;SDS011;23834;48.080;11.682;2024-03-23T12:34:16;0.47;;;0.40;;
38023;SDS011;23834;48.080;11.682;2024-03-23T12:36:41;0.50;;;0.40;;
38023;SDS011;23834;48.080;11.682;2024-03-23T12:39:06;0.50;;;0.50;;
38023;SDS011;23834;48.080;11.682;2024-03-23T12:41:32;0.50;;;0.43;;
38023;SDS011;23834;48.080;11.682;2024-03-23T12:43:57;0.63;;;0.50;;
38023;SDS011;23834;48.080;11.682;2024-03-23T12:46:22;0.40;;;0.37;;
38023;SDS011;23834;48.080;11.682;2024-03-23T12:48:48;0.50;;;0.37;;
38023;SDS011;23834;48.080;11.682;2024-03-23T12:51:13;0.40;;;0.40;;
38023;SDS011;23834;48.080;11.682;2024-03-23T12:53:38;1.03;;;0.57;;
38023;SDS011;23834;48.080;11.682;2024-03-23T12:56:03;0.40;;;0.40;;
38023;SDS011;23834;48.080;11.682;2024-03-23T12:58:29;0.70;;;0.50;;
38023;SDS011;23834;48.080;11.682;2024-03-23T13:00:54;0.50;;;0.43;;
38023;SDS011;23834;48.080;11.682;2024-03-23T13:03:19;0.50;;;0.40;;
38023;SDS011;23834;48.080;11.682;2024-03-23T13:05:46;0.50;;;0.40;;
38023;SDS011;23834;48.080;11.682;2024-03-23T13:08:16;0.43;;;0.40;;
38023;SDS011;23834;48.080;11.682;2024-03-23T13:10:41;0.50;;;0.50;;
38023;SDS011;23834;48.080;11.682;2024-03-23T13:13:07;0.50;;;0.40;;
38023;SDS011;23834;48.080;11.682;2024-03-23T13:15:32;0.80;;;0.50;;
38023;SDS011;23834;48.080;11.682;2024-03-23T13:17:58;0.70;;;0.50;;
38023;SDS011;23834;48.080;11.682;2024-03-23T13:20:23;0.50;;;0.50;;
38023;SDS011;23834;48.080;11.682;2024-03-23T13:22:49;0.97;;;0.40;;
38023;SDS011;23834;48.080;11.682;2024-03-23T13:25:16;0.50;;;0.47;;
38023;SDS011;23834;48.080;11.682;2024-03-23T13:27:43;0.50;;;0.40;;
38023;SDS011;23834;48.080;11.682;2024-03-23T13:30:08;0.70;;;0.60;;
38023;SDS011;23834;48.080;11.682;2024-03-23T13:32:34;0.50;;;0.50;;
38023;SDS011;23834;48.080;11.682;2024-03-23T13:35:00;0.40;;;0.40;;
38023;SDS011;23834;48.080;11.682;2024-03-23T13:37:25;0.60;;;0.60;;
38023;SDS011;23834;48.080;11.682;2024-03-23T13:39:50;0.50;;;0.50;;
38023;SDS011;23834;48.080;11.682;2024-03-23T13:42:15;0.60;;;0.60;;
38023;SDS011;23834;48.080;11.682;2024-03-23T13:44:41;0.83;;;0.50;;
38023;SDS011;23834;48.080;11.682;2024-03-23T13:47:06;0.40;;;0.40;;
38023;SDS011;23834;48.080;11.682;2024-03-23T13:49:31;0.60;;;0.50;;
38023;SDS011;23834;48.080;11.682;2024-03-23T13:51:59;0.73;;;0.60;;
38023;SDS011;23834;48.080;11.682;2024-03-23T13:54:25;0.80;;;0.67;;
38023;SDS011;23834;48.080;11.682;2024-03-23T13:56:51;0.60;;;0.60;;
38023;SDS011;23834;48.080;11.682;2024-03-23T13:59:16;0.50;;;0.50;;
38023;SDS011;23834;48.080;11.682;2024-03-23T14:01:42;0.57;;;0.50;;
38023;SDS011;23834;48.080;11.682;2024-03-23T14:04:07;0.83;;;0.60;;
38023;SDS011;23834;48.080;11.682;2024-03-23T14:06:32;0.70;;;0.70;;
38023;SDS011;23834;48.080;11.682;2024-03-23T14:08:57;0.57;;;0.50;;
38023;SDS011;23834;48.080;11.682;2024-03-23T14:11:23;0.53;;;0.50;;
38023;SDS011;23834;48.080;11.682;2024-03-23T14:13:48;0.60;;;0.60;;
38023;SDS011;23834;48.080;11.682;2024-03-23T14:16:13;0.70;;;0.60;;
38023;SDS011;23834;48.080;11.682;2024-03-23T14:18:38;1.07;;;0.60;;
38023;SDS011;23834;48.080;11.682;2024-03-23T14:21:03;0.70;;;0.70;;
38023;SDS011;23834;48.080;11.682;2024-03-23T14:23:30;0.60;;;0.60;;
38023;SDS011;23834;48.080;11.682;2024-03-23T14:25:57;0.67;;;0.67;;
38023;SDS011;23834;48.080;11.682;2024-03-23T14:28:23;0.60;;;0.60;;
38023;SDS011;23834;48.080;11.682;2024-03-23T14:30:49;1.10;;;0.60;;
38023;SDS011;23834;48.080;11.682;2024-03-23T14:33:14;2.33;;;0.53;;
38023;SDS011;23834;48.080;11.682;2024-03-23T14:35:40;0.77;;;0.77;;
38023;SDS011;23834;48.080;11.682;2024-03-23T14:38:06;0.80;;;0.80;;
38023;SDS011;23834;48.080;11.682;2024-03-23T14:40:31;0.70;;;0.70;;
38023;SDS011;23834;48.080;11.682;2024-03-23T14:42:56;0.60;;;0.50;;
38023;SDS011;23834;48.080;11.682;2024-03-23T14:45:21;0.70;;;0.70;;
38023;SDS011;23834;48.080;11.682;2024-03-23T14:47:47;0.50;;;0.50;;
38023;SDS011;23834;48.080;11.682;2024-03-23T14:50:12;0.60;;;0.57;;
38023;SDS011;23834;48.080;11.682;2024-03-23T14:52:40;0.80;;;0.60;;
38023;SDS011;23834;48.080;11.682;2024-03-23T14:55:05;0.77;;;0.77;;
38023;SDS011;23834;48.080;11.682;2024-03-23T14:57:33;0.90;;;0.60;;
38023;SDS011;23834;48.080;11.682;2024-03-23T14:59:58;0.53;;;0.50;;
38023;SDS011;23834;48.080;11.682;2024-03-23T15:02:24;0.80;;;0.60;;
38023;SDS011;23834;48.080;11.682;2024-03-23T15:04:49;0.60;;;0.60;;
38023;SDS011;23834;48.080;11.682;2024-03-23T15:07:14;0.80;;;0.53;;
38023;SDS011;23834;48.080;11.682;2024-03-23T15:09:39;0.80;;;0.60;;
38023;SDS011;23834;48.080;11.682;2024-03-23T15:12:04;0.60;;;0.60;;
38023;SDS011;23834;48.080;11.682;2024-03-23T15:14:30;0.60;;;0.57;;
38023;SDS011;23834;48.080;11.682;2024-03-23T15:16:55;0.70;;;0.70;;
38023;SDS011;23834;48.080;11.682;2024-03-23T15:19:20;0.70;;;0.53;;
38023;SDS011;23834;48.080;11.682;2024-03-23T15:21:45;0.60;;;0.60;;
38023;SDS011;23834;48.080;11.682;2024-03-23T15:24:10;0.63;;;0.63;;
38023;SDS011;23834;48.080;11.682;2024-03-23T15:26:36;0.63;;;0.63;;
38023;SDS011;23834;48.080;11.682;2024-03-23T15:29:02;0.50;;;0.50;;
38023;SDS011;23834;48.080;11.682;2024-03-23T15:31:27;0.63;;;0.63;;
38023;SDS011;23834;48.080;11.682;2024-03-23T15:33:52;0.83;;;0.70;;